Time;durP1;ratioP1;P1;durP2;ratioP2;P2;SDS_P1;SDS_P2;PMS_P1;PMS_P2;Temp;Humidity;BMP_temperature;BMP_pressure;BME280_temperature;BME280_humidity;BME280_pressure;Samples;Min_cycle;Max_cycle;Signal;HPM_P1;HPM_P2
2022/12/30 00:00:25;;;;;;;;;;;;;;;8.17;71.30;100409.31;4166969;28;20048;-63
2022/12/30 00:02:27;;;;;;;;;;;;;;;8.17;71.33;100412.00;4168319;28;20062;-61
2022/12/30 00:04:29;;;;;;;;;;;;;;;8.14;71.16;100411.50;4167568;28;20427;-63
2022/12/30 00:06:31;;;;;;;;;;;;;;;8.10;71.09;100424.44;4168661;28;20020;-62
2022/12/30 00:08:47;;;;;;;;;;;;;;;8.10;71.39;100429.81;4168323;28;20019;-62
2022/12/30 00:10:50;;;;;;;;;;;;;;;8.09;71.69;100425.47;4153796;28;19925;-62
2022/12/30 00:33:57;;;;;;;;;;;;;;;7.97;71.23;100445.63;4172117;28;20015;-59
2022/12/30 00:35:59;;;;;;;;;;;;;;;7.99;71.30;100451.69;4173510;28;19960;-61
2022/12/30 00:38:01;;;;;;;;;;;;;;;7.98;71.23;100460.75;4173562;28;20001;-63
2022/12/30 00:40:03;;;;;;;;;;;;;;;7.98;71.01;100474.19;4173014;28;20466;-62
2022/12/30 00:44:26;;;;;;;;;;;;;;;7.98;70.87;100476.88;4173324;28;20020;-62
2022/12/30 00:46:27;;;;;;;;;;;;;;;7.97;70.89;100486.81;4174024;28;20004;-62
2022/12/30 00:57:48;;;;;;;;;;;;;;;8.04;71.00;100481.59;4171779;28;20016;-60
2022/12/30 00:59:50;;;;;;;;;;;;;;;8.01;70.91;100482.78;4172657;28;19964;-62
2022/12/30 01:01:52;;;;;;;;;;;;;;;7.97;71.04;100477.91;4173415;28;20047;-60
2022/12/30 01:03:54;;;;;;;;;;;;;;;7.96;71.20;100486.97;4173460;28;20019;-61
2022/12/30 01:05:56;;;;;;;;;;;;;;;7.91;71.05;100487.47;4171664;28;20008;-62
2022/12/30 01:07:58;;;;;;;;;;;;;;;7.86;71.03;100493.34;4172212;28;20019;-62
2022/12/30 01:10:00;;;;;;;;;;;;;;;7.85;71.18;100490.81;4172670;28;20535;-62
2022/12/30 01:12:10;;;;;;;;;;;;;;;7.84;71.17;100491.84;4173630;28;20027;-61
2022/12/30 01:14:14;;;;;;;;;;;;;;;7.83;71.07;100498.22;4173040;28;19950;-59
2022/12/30 01:16:16;;;;;;;;;;;;;;;7.83;70.97;100503.59;4173559;28;19995;-60
2022/12/30 01:18:18;;;;;;;;;;;;;;;7.81;71.38;100521.75;4173832;28;20016;-60
2022/12/30 01:20:20;;;;;;;;;;;;;;;7.79;71.02;100515.66;4172864;28;20000;-60
2022/12/30 01:22:22;;;;;;;;;;;;;;;7.79;71.31;100527.28;4173174;28;20641;-61
2022/12/30 01:24:24;;;;;;;;;;;;;;;7.79;71.03;100527.28;4172726;28;20020;-61
2022/12/30 01:26:26;;;;;;;;;;;;;;;7.78;70.99;100536.34;4172979;28;20016;-61
2022/12/30 01:28:29;;;;;;;;;;;;;;;7.76;71.05;100547.25;4173143;28;20015;-61
2022/12/30 01:30:32;;;;;;;;;;;;;;;7.75;70.94;100534.81;4171824;28;20373;-59
2022/12/30 01:32:36;;;;;;;;;;;;;;;7.75;71.08;100542.88;4173863;28;20017;-61
2022/12/30 01:34:38;;;;;;;;;;;;;;;7.74;70.99;100540.34;4172992;28;20336;-60
2022/12/30 01:36:40;;;;;;;;;;;;;;;7.70;71.09;100544.41;4173365;28;20590;-61
2022/12/30 01:38:42;;;;;;;;;;;;;;;7.69;71.25;100548.91;4188145;28;20481;-60
2022/12/30 01:40:44;;;;;;;;;;;;;;;7.69;71.03;100556.97;4172249;28;20012;-60
2022/12/30 01:42:46;;;;;;;;;;;;;;;7.64;70.85;100559.31;4172954;28;20522;-60
2022/12/30 01:44:51;;;;;;;;;;;;;;;7.62;71.03;100558.66;4174116;28;20032;-61
2022/12/30 01:46:55;;;;;;;;;;;;;;;7.61;71.21;100566.88;4171241;28;20023;-61
2022/12/30 01:48:57;;;;;;;;;;;;;;;7.60;71.27;100573.25;4174223;28;20019;-61
2022/12/30 01:51:00;;;;;;;;;;;;;;;7.55;71.17;100573.72;4171854;28;20015;-61
2022/12/30 01:53:02;;;;;;;;;;;;;;;7.56;71.45;100570.03;4172923;28;20043;-61
2022/12/30 01:55:06;;;;;;;;;;;;;;;7.55;71.23;100581.78;4171051;28;19955;-60
2022/12/30 01:57:07;;;;;;;;;;;;;;;7.53;71.36;100576.56;4172517;28;20008;-57
2022/12/30 01:59:10;;;;;;;;;;;;;;;7.50;71.50;100582.28;4172498;28;20024;-60
2022/12/30 02:01:12;;;;;;;;;;;;;;;7.49;71.29;100591.34;4170853;28;20542;-61
2022/12/30 02:03:16;;;;;;;;;;;;;;;7.48;71.12;100586.13;4171990;28;20003;-60
2022/12/30 02:05:18;;;;;;;;;;;;;;;7.45;71.09;100591.84;4171696;28;20013;-62
2022/12/30 02:07:20;;;;;;;;;;;;;;;7.44;71.36;100596.34;4172502;28;20431;-62
2022/12/30 02:09:22;;;;;;;;;;;;;;;7.45;71.19;100600.72;4171829;28;20020;-62
2022/12/30 02:11:24;;;;;;;;;;;;;;;7.45;71.38;100605.28;4172140;28;20023;-60
2022/12/30 02:13:26;;;;;;;;;;;;;;;7.44;71.12;100601.72;4172887;28;20019;-60
2022/12/30 02:15:29;;;;;;;;;;;;;;;7.45;71.17;100605.28;4172170;28;19951;-60
2022/12/30 02:17:33;;;;;;;;;;;;;;;7.42;71.16;100603.72;4172676;28;20021;-59
2022/12/30 02:19:56;;;;;;;;;;;;;;;7.43;71.06;100609.94;4171726;28;20379;-61
2022/12/30 02:22:02;;;;;;;;;;;;;;;7.42;70.75;100616.34;4168595;28;20457;-61
2022/12/30 02:24:08;;;;;;;;;;;;;;;7.40;71.16;100616.50;4172137;28;20477;-63
2022/12/30 02:26:15;;;;;;;;;;;;;;;7.41;71.24;100615.47;4171677;28;20019;-61
2022/12/30 02:28:23;;;;;;;;;;;;;;;7.42;70.79;100621.72;4172232;28;20024;-60
2022/12/30 02:30:25;;;;;;;;;;;;;;;7.42;70.73;100624.41;4172025;28;20023;-61
2022/12/30 02:32:28;;;;;;;;;;;;;;;7.42;70.96;100619.84;4172612;28;20015;-60
2022/12/30 02:34:31;;;;;;;;;;;;;;;7.40;70.83;100617.31;4187774;28;19968;-60
2022/12/30 02:36:39;;;;;;;;;;;;;;;7.39;71.06;100617.50;4172429;28;19931;-60
2022/12/30 02:38:43;;;;;;;;;;;;;;;7.36;71.31;100624.00;4172480;28;20000;-60
2022/12/30 02:45:28;;;;;;;;;;;;;;;7.35;71.15;100619.66;4171165;28;20015;-62
2022/12/30 02:47:31;;;;;;;;;;;;;;;7.36;71.66;100628.56;4172785;28;20008;-60
2022/12/30 02:49:33;;;;;;;;;;;;;;;7.36;71.48;100626.69;4172116;28;20024;-61
2022/12/30 02:53:55;;;;;;;;;;;;;;;7.38;71.54;100626.53;4172688;28;20020;-62
2022/12/30 02:55:57;;;;;;;;;;;;;;;7.38;71.63;100624.72;4171091;28;20392;-61
2022/12/30 02:57:58;;;;;;;;;;;;;;;7.39;71.75;100625.53;4171369;28;19921;-59
2022/12/30 03:04:48;;;;;;;;;;;;;;;7.34;71.85;100635.94;4170651;28;20019;-60
2022/12/30 03:07:02;;;;;;;;;;;;;;;7.34;72.15;100630.56;4169271;28;20012;-60
2022/12/30 03:09:07;;;;;;;;;;;;;;;7.33;72.01;100634.25;4172722;28;19960;-58
2022/12/30 03:11:16;;;;;;;;;;;;;;;7.34;71.80;100635.94;4170971;28;20369;-59
2022/12/30 03:13:19;;;;;;;;;;;;;;;7.34;71.95;100625.19;4171769;28;20013;-60
2022/12/30 03:15:22;;;;;;;;;;;;;;;7.34;71.77;100634.09;4170534;28;20012;-59
2022/12/30 03:17:25;;;;;;;;;;;;;;;7.34;71.75;100628.72;4171622;28;20019;-59
2022/12/30 03:19:28;;;;;;;;;;;;;;;7.32;71.62;100633.41;4171078;28;19935;-57
2022/12/30 03:21:32;;;;;;;;;;;;;;;7.33;71.61;100634.25;4172069;28;20019;-59
2022/12/30 03:28:17;;;;;;;;;;;;;;;7.32;71.68;100651.34;4144817;28;20013;-58
2022/12/30 03:30:19;;;;;;;;;;;;;;;7.32;71.41;100651.34;4169256;28;20039;-58
2022/12/30 03:32:21;;;;;;;;;;;;;;;7.31;71.27;100658.59;4171439;28;20019;-60
2022/12/30 03:34:23;;;;;;;;;;;;;;;7.29;70.91;100665.09;4170615;28;20003;-59
2022/12/30 03:36:26;;;;;;;;;;;;;;;7.24;70.67;100662.06;4170710;28;20031;-56
2022/12/30 03:38:30;;;;;;;;;;;;;;;7.22;71.01;100657.69;4172244;28;20004;-58
2022/12/30 03:40:33;;;;;;;;;;;;;;;7.25;70.84;100658.38;4176929;28;19934;-60
2022/12/30 03:42:35;;;;;;;;;;;;;;;7.27;70.81;100667.09;4170723;28;20007;-58
2022/12/30 03:44:37;;;;;;;;;;;;;;;7.25;70.43;100666.44;4170134;28;20015;-60
2022/12/30 03:46:41;;;;;;;;;;;;;;;7.22;70.22;100664.91;4170321;28;20011;-58
2022/12/30 03:48:42;;;;;;;;;;;;;;;7.21;70.12;100668.59;4171645;28;20020;-59
2022/12/30 03:50:44;;;;;;;;;;;;;;;7.17;70.13;100672.59;4170104;28;20007;-61
2022/12/30 03:52:46;;;;;;;;;;;;;;;7.17;70.19;100677.97;4170866;28;20092;-60
2022/12/30 03:54:50;;;;;;;;;;;;;;;7.16;70.32;100677.13;4169723;28;20032;-60
2022/12/30 03:56:52;;;;;;;;;;;;;;;7.16;70.08;100679.81;4170778;28;20450;-60
2022/12/30 03:58:54;;;;;;;;;;;;;;;7.15;69.89;100678.13;4170786;28;20019;-60
2022/12/30 04:00:56;;;;;;;;;;;;;;;7.11;69.85;100687.47;4168659;28;19921;-61
2022/12/30 04:02:58;;;;;;;;;;;;;;;7.08;70.33;100684.25;4171010;28;20011;-57
2022/12/30 04:05:00;;;;;;;;;;;;;;;7.04;70.40;100683.75;4170145;28;20015;-61
2022/12/30 04:07:02;;;;;;;;;;;;;;;7.02;70.53;100686.56;4185581;28;20014;-61
2022/12/30 04:09:04;;;;;;;;;;;;;;;7.03;70.42;100698.16;4170225;28;20011;-59
2022/12/30 04:11:07;;;;;;;;;;;;;;;7.01;70.18;100690.25;4169924;28;20008;-62
2022/12/30 04:13:09;;;;;;;;;;;;;;;6.98;70.33;100701.31;4171289;28;20023;-60
2022/12/30 04:15:11;;;;;;;;;;;;;;;6.98;70.53;100692.41;4169473;28;20011;-60
2022/12/30 04:17:13;;;;;;;;;;;;;;;6.96;70.36;100689.03;4171386;28;20012;-59
2022/12/30 04:19:15;;;;;;;;;;;;;;;6.95;70.71;100693.56;4169584;28;20031;-60
2022/12/30 04:21:17;;;;;;;;;;;;;;;6.94;70.53;100691.03;4170234;28;19921;-61
2022/12/30 04:23:19;;;;;;;;;;;;;;;6.93;70.79;100689.31;4171682;28;20008;-58
2022/12/30 04:25:21;;;;;;;;;;;;;;;6.88;70.23;100694.31;4169693;28;20043;-60
2022/12/30 04:27:24;;;;;;;;;;;;;;;6.84;70.59;100697.31;4171211;28;20016;-61
2022/12/30 04:29:26;;;;;;;;;;;;;;;6.82;71.18;100701.16;4176494;28;20019;-61
2022/12/30 04:31:28;;;;;;;;;;;;;;;6.79;70.96;100702.31;4170551;28;20434;-59
2022/12/30 04:33:30;;;;;;;;;;;;;;;6.78;71.04;100705.97;4170517;28;20012;-61
2022/12/30 04:35:32;;;;;;;;;;;;;;;6.79;71.22;100707.69;4169433;28;20350;-61
2022/12/30 04:37:34;;;;;;;;;;;;;;;6.80;71.27;100719.25;4169955;28;20376;-61
2022/12/30 04:39:36;;;;;;;;;;;;;;;6.81;71.02;100712.91;4169466;28;20020;-59
2022/12/30 04:41:38;;;;;;;;;;;;;;;6.79;71.10;100723.78;4171061;28;19921;-58
2022/12/30 04:43:41;;;;;;;;;;;;;;;6.78;71.01;100724.78;4169716;28;20023;-59
2022/12/30 04:45:43;;;;;;;;;;;;;;;6.78;70.84;100729.31;4169415;28;20016;-59
2022/12/30 04:47:45;;;;;;;;;;;;;;;6.76;70.87;100725.94;4170450;28;20000;-62
2022/12/30 04:49:47;;;;;;;;;;;;;;;6.76;70.99;100725.94;4169681;28;20021;-60
2022/12/30 04:51:49;;;;;;;;;;;;;;;6.74;71.18;100731.47;4170545;28;20023;-60
2022/12/30 04:53:51;;;;;;;;;;;;;;;6.74;71.27;100727.91;4169927;28;20021;-57
2022/12/30 04:55:53;;;;;;;;;;;;;;;6.72;70.82;100738.81;4169551;28;20024;-59
2022/12/30 04:57:55;;;;;;;;;;;;;;;6.68;71.03;100740.94;4169846;28;20507;-58
2022/12/30 04:59:59;;;;;;;;;;;;;;;6.65;71.09;100743.09;4169391;28;20019;-58
2022/12/30 05:02:01;;;;;;;;;;;;;;;6.55;71.26;100743.16;4170339;28;20012;-60
2022/12/30 05:04:03;;;;;;;;;;;;;;;6.55;71.49;100745.00;4169427;28;20008;-59
2022/12/30 05:06:05;;;;;;;;;;;;;;;6.54;71.54;100754.06;4169015;28;20032;-60
2022/12/30 05:08:07;;;;;;;;;;;;;;;6.54;71.71;100762.94;4170282;28;20016;-60
2022/12/30 05:10:09;;;;;;;;;;;;;;;6.54;71.80;100760.25;4169700;28;20427;-60
2022/12/30 05:12:11;;;;;;;;;;;;;;;6.50;71.89;100761.53;4169666;28;20451;-60
2022/12/30 05:14:12;;;;;;;;;;;;;;;6.50;71.59;100766.91;4169588;28;20011;-60
2022/12/30 05:16:16;;;;;;;;;;;;;;;6.46;71.45;100771.75;4169466;28;20015;-59
2022/12/30 05:18:18;;;;;;;;;;;;;;;6.43;71.82;100776.56;4170095;28;20016;-61
2022/12/30 05:20:20;;;;;;;;;;;;;;;6.42;71.98;100778.38;4170334;28;20035;-59
2022/12/30 05:22:22;;;;;;;;;;;;;;;6.43;72.08;100780.09;4173407;28;20381;-61
2022/12/30 05:26:43;;;;;;;;;;;;;;;6.41;72.06;100782.09;4172440;28;20019;-60
2022/12/30 05:28:46;;;;;;;;;;;;;;;6.39;71.80;100783.22;4172250;28;20011;-60
2022/12/30 05:30:48;;;;;;;;;;;;;;;6.37;72.19;100779.84;4172763;28;20031;-60
2022/12/30 05:32:51;;;;;;;;;;;;;;;6.35;71.90;100781.81;4173131;28;20014;-61
2022/12/30 05:34:53;;;;;;;;;;;;;;;6.31;72.26;100778.59;4172223;28;20004;-62
2022/12/30 05:36:55;;;;;;;;;;;;;;;6.30;72.29;100792.97;4173322;28;20349;-58
2022/12/30 05:38:57;;;;;;;;;;;;;;;6.28;72.01;100781.56;4172754;28;20004;-60
2022/12/30 05:40:59;;;;;;;;;;;;;;;6.24;72.09;100791.75;4172278;28;20015;-58
2022/12/30 05:43:01;;;;;;;;;;;;;;;6.20;72.24;100786.84;4172418;28;19931;-61
2022/12/30 05:45:04;;;;;;;;;;;;;;;6.19;72.33;100795.84;4171527;28;20011;-59
2022/12/30 05:47:06;;;;;;;;;;;;;;;6.20;72.64;100794.88;4172282;28;20394;-58
2022/12/30 05:49:09;;;;;;;;;;;;;;;6.19;72.38;100804.75;4173633;28;20372;-59
2022/12/30 05:51:11;;;;;;;;;;;;;;;6.16;72.28;100801.50;4172252;28;20379;-62
2022/12/30 05:53:13;;;;;;;;;;;;;;;6.12;72.68;100807.16;4172522;28;20019;-60
2022/12/30 05:55:15;;;;;;;;;;;;;;;6.15;72.92;100810.56;4172560;28;20007;-61
2022/12/30 05:57:17;;;;;;;;;;;;;;;6.17;72.65;100809.41;4172335;28;20012;-58
2022/12/30 05:59:19;;;;;;;;;;;;;;;6.18;72.70;100810.28;4171527;28;20364;-59
2022/12/30 06:01:21;;;;;;;;;;;;;;;6.18;72.55;100816.47;4173680;28;20454;-59
2022/12/30 06:03:23;;;;;;;;;;;;;;;6.18;72.33;100818.31;4172031;28;20608;-60
2022/12/30 06:05:26;;;;;;;;;;;;;;;6.16;72.28;100828.34;4171781;28;20351;-61
2022/12/30 06:07:28;;;;;;;;;;;;;;;6.17;72.71;100830.88;4172701;28;20023;-57
2022/12/30 06:09:30;;;;;;;;;;;;;;;6.18;72.57;100834.41;4171457;28;20335;-59
2022/12/30 06:11:32;;;;;;;;;;;;;;;6.20;72.21;100838.63;4171775;28;20008;-60
2022/12/30 06:13:34;;;;;;;;;;;;;;;6.17;72.30;100840.75;4172933;28;20008;-60
2022/12/30 06:15:36;;;;;;;;;;;;;;;6.13;72.46;100845.56;4170982;28;20019;-59
2022/12/30 06:17:38;;;;;;;;;;;;;;;6.12;72.66;100850.06;4172322;28;20007;-59
2022/12/30 06:19:40;;;;;;;;;;;;;;;6.11;72.45;100853.75;4171373;28;20023;-60
2022/12/30 06:21:43;;;;;;;;;;;;;;;6.09;72.54;100857.56;4170743;28;20067;-61
2022/12/30 06:23:45;;;;;;;;;;;;;;;6.07;72.40;100859.56;4172526;28;20023;-61
2022/12/30 06:25:51;;;;;;;;;;;;;;;6.05;72.39;100853.47;4170450;28;20012;-61
2022/12/30 06:27:52;;;;;;;;;;;;;;;6.03;72.59;100855.47;4172155;28;20022;-61
2022/12/30 06:29:54;;;;;;;;;;;;;;;6.02;72.61;100862.69;4171197;28;20015;-61
2022/12/30 06:31:56;;;;;;;;;;;;;;;6.05;72.83;100861.53;4171040;28;19929;-61
2022/12/30 06:33:58;;;;;;;;;;;;;;;6.03;72.62;100868.88;4172005;28;20003;-61
2022/12/30 06:36:00;;;;;;;;;;;;;;;6.01;72.77;100873.53;4171453;28;20054;-61
2022/12/30 06:38:04;;;;;;;;;;;;;;;5.99;72.61;100880.88;4171058;28;20027;-61
2022/12/30 06:40:06;;;;;;;;;;;;;;;5.98;72.68;100876.50;4171274;28;20019;-60
2022/12/30 06:42:10;;;;;;;;;;;;;;;5.92;72.84;100883.25;4172008;28;20027;-60
2022/12/30 06:44:13;;;;;;;;;;;;;;;5.90;73.14;100893.28;4169987;28;20322;-61
2022/12/30 06:46:15;;;;;;;;;;;;;;;5.87;73.34;100888.19;4171785;28;20028;-59
2022/12/30 06:48:17;;;;;;;;;;;;;;;5.85;73.53;100887.50;4171635;28;20007;-57
2022/12/30 06:50:19;;;;;;;;;;;;;;;5.84;73.33;100877.75;4170051;28;20019;-60
2022/12/30 06:52:21;;;;;;;;;;;;;;;5.83;73.50;100887.66;4170837;28;20023;-61
2022/12/30 06:54:24;;;;;;;;;;;;;;;5.84;73.52;100888.50;4170494;28;20466;-61
2022/12/30 06:56:29;;;;;;;;;;;;;;;5.85;73.68;100890.19;4170452;28;20017;-59
2022/12/30 06:58:31;;;;;;;;;;;;;;;5.83;73.64;100894.81;4170659;28;20425;-61
2022/12/30 07:00:34;;;;;;;;;;;;;;;5.78;73.27;100904.16;4169161;28;19997;-60
2022/12/30 07:02:36;;;;;;;;;;;;;;;5.76;73.78;100899.91;4168126;28;20060;-55
2022/12/30 07:04:38;;;;;;;;;;;;;;;5.75;74.13;100909.81;4169893;28;19970;-61
2022/12/30 07:06:40;;;;;;;;;;;;;;;5.74;73.79;100918.81;4170529;28;20012;-60
2022/12/30 07:08:42;;;;;;;;;;;;;;;5.73;74.12;100918.97;4170701;28;20007;-61
2022/12/30 07:10:48;;;;;;;;;;;;;;;5.71;74.03;100919.09;4168993;28;19925;-60
2022/12/30 07:12:50;;;;;;;;;;;;;;;5.70;74.18;100914.72;4169906;28;20023;-61
2022/12/30 07:14:52;;;;;;;;;;;;;;;5.71;74.09;100924.47;4169862;28;20024;-62
2022/12/30 07:16:54;;;;;;;;;;;;;;;5.70;74.02;100924.59;4171715;28;20019;-57
2022/12/30 07:18:56;;;;;;;;;;;;;;;5.66;74.31;100924.03;4170545;28;20381;-59
2022/12/30 07:20:58;;;;;;;;;;;;;;;5.70;74.10;100929.97;4169632;28;19955;-61
2022/12/30 07:23:02;;;;;;;;;;;;;;;5.73;74.20;100927.00;4170094;28;20032;-57
2022/12/30 07:25:06;;;;;;;;;;;;;;;5.72;73.79;100936.88;4169553;28;20004;-60
2022/12/30 07:27:10;;;;;;;;;;;;;;;5.72;74.04;100941.38;4170580;28;20449;-59
2022/12/30 07:29:13;;;;;;;;;;;;;;;5.73;73.81;100937.72;4169392;28;19964;-60
2022/12/30 07:31:15;;;;;;;;;;;;;;;5.74;73.75;100942.09;4170157;28;20108;-60
2022/12/30 07:33:17;;;;;;;;;;;;;;;5.71;73.47;100953.94;4169748;28;20019;-60
2022/12/30 07:35:19;;;;;;;;;;;;;;;5.67;73.70;100957.88;4169800;28;19964;-61
2022/12/30 07:37:21;;;;;;;;;;;;;;;5.65;73.78;100965.22;4170315;28;20004;-59
2022/12/30 07:39:23;;;;;;;;;;;;;;;5.67;74.00;100957.88;4159512;28;20016;-59
2022/12/30 07:41:25;;;;;;;;;;;;;;;5.66;73.85;100961.56;4169518;28;20060;-59
2022/12/30 07:43:29;;;;;;;;;;;;;;;5.62;73.97;100964.66;4170592;28;20015;-60
2022/12/30 07:45:31;;;;;;;;;;;;;;;5.60;74.13;100965.63;4169537;28;20387;-59
2022/12/30 07:47:33;;;;;;;;;;;;;;;5.58;74.14;100964.09;4185111;28;20008;-58
2022/12/30 07:49:35;;;;;;;;;;;;;;;5.56;74.08;100972.28;4170535;28;20011;-59
2022/12/30 07:51:37;;;;;;;;;;;;;;;5.55;74.11;100972.41;4169664;28;20020;-56
2022/12/30 07:53:38;;;;;;;;;;;;;;;5.54;73.97;100986.78;4169925;28;20007;-60
2022/12/30 07:55:41;;;;;;;;;;;;;;;5.54;74.28;100984.09;4169258;28;20035;-59
2022/12/30 07:57:43;;;;;;;;;;;;;;;5.55;74.29;100985.81;4170319;28;20019;-59
2022/12/30 07:59:46;;;;;;;;;;;;;;;5.56;74.47;100988.34;4169313;28;20031;-58
2022/12/30 08:01:48;;;;;;;;;;;;;;;5.58;74.91;100981.00;4168496;28;20020;-63
2022/12/30 08:03:50;;;;;;;;;;;;;;;5.61;75.09;100985.22;4168836;28;20003;-60
2022/12/30 08:05:52;;;;;;;;;;;;;;;5.64;74.70;100982.25;4167300;28;19925;-62
2022/12/30 08:07:54;;;;;;;;;;;;;;;5.66;74.35;100971.41;4169614;28;20028;-60
2022/12/30 08:09:56;;;;;;;;;;;;;;;5.67;74.64;100978.47;4168195;28;20339;-63
2022/12/30 08:11:58;;;;;;;;;;;;;;;5.69;74.18;100985.41;4168287;28;20032;-63
2022/12/30 08:14:00;;;;;;;;;;;;;;;5.70;74.24;100991.59;4176790;28;19928;-63
2022/12/30 08:16:05;;;;;;;;;;;;;;;5.72;74.32;100995.84;4166699;28;20430;-62
2022/12/30 08:18:07;;;;;;;;;;;;;;;5.77;74.15;100998.94;4168431;28;20000;-59
2022/12/30 08:20:10;;;;;;;;;;;;;;;5.82;74.20;100998.53;4168290;28;20426;-60
2022/12/30 08:22:12;;;;;;;;;;;;;;;5.84;73.87;100993.88;4168227;28;20055;-62
2022/12/30 08:24:14;;;;;;;;;;;;;;;5.88;73.98;100989.94;4174087;28;20039;-63
2022/12/30 08:26:16;;;;;;;;;;;;;;;5.94;73.71;100985.81;4166470;28;19956;-62
2022/12/30 08:28:18;;;;;;;;;;;;;;;5.98;73.48;100991.81;4167337;28;20665;-62
2022/12/30 08:30:20;;;;;;;;;;;;;;;5.99;73.32;101006.88;4174773;28;19932;-61
2022/12/30 08:32:23;;;;;;;;;;;;;;;6.00;72.76;100996.00;4167705;28;20717;-60
2022/12/30 08:34:26;;;;;;;;;;;;;;;6.03;73.13;101000.25;4166711;28;20043;-61
2022/12/30 08:36:28;;;;;;;;;;;;;;;6.06;72.74;100999.97;4166691;28;20051;-61
2022/12/30 08:38:30;;;;;;;;;;;;;;;6.07;72.50;101004.38;4168201;28;20023;-62
2022/12/30 08:40:33;;;;;;;;;;;;;;;6.12;72.61;100999.41;4162970;28;19936;-63
2022/12/30 08:42:35;;;;;;;;;;;;;;;6.15;72.48;101003.66;4167082;28;20019;-63
2022/12/30 08:44:37;;;;;;;;;;;;;;;6.20;72.12;101020.16;4165476;28;20039;-62
2022/12/30 08:46:40;;;;;;;;;;;;;;;6.22;72.00;101012.81;4165524;28;19920;-61
2022/12/30 08:48:43;;;;;;;;;;;;;;;6.24;72.25;101017.06;4169544;28;20365;-61
2022/12/30 08:50:45;;;;;;;;;;;;;;;6.27;71.69;101010.53;4167523;28;20038;-62
2022/12/30 08:52:47;;;;;;;;;;;;;;;6.28;71.81;101017.63;4169720;28;20008;-62
2022/12/30 08:54:49;;;;;;;;;;;;;;;6.29;71.99;101001.38;4166362;28;20028;-62
2022/12/30 08:56:51;;;;;;;;;;;;;;;6.36;71.95;101004.31;4169621;28;20008;-61
2022/12/30 08:58:54;;;;;;;;;;;;;;;6.39;71.54;101009.41;4170902;28;20015;-61
2022/12/30 09:00:56;;;;;;;;;;;;;;;6.41;71.76;101026.22;4170342;28;21219;-61
2022/12/30 09:02:58;;;;;;;;;;;;;;;6.45;71.49;101013.38;4171547;28;20067;-61
2022/12/30 09:05:01;;;;;;;;;;;;;;;6.48;71.48;101027.34;4170066;28;20008;-62
2022/12/30 09:07:03;;;;;;;;;;;;;;;6.51;71.34;101015.47;4171515;28;19963;-61
2022/12/30 09:09:06;;;;;;;;;;;;;;;6.55;71.46;101026.75;4171883;28;20451;-61
2022/12/30 09:11:10;;;;;;;;;;;;;;;6.58;71.29;101021.09;4170194;28;20332;-62
2022/12/30 09:13:12;;;;;;;;;;;;;;;6.62;71.43;101022.53;4169629;28;20003;-61
2022/12/30 09:15:16;;;;;;;;;;;;;;;6.65;71.49;101023.06;4165083;28;19928;-60
2022/12/30 09:17:18;;;;;;;;;;;;;;;6.68;71.27;101022.78;4170332;28;20007;-60
2022/12/30 09:19:20;;;;;;;;;;;;;;;6.72;71.08;101025.19;4170238;28;20049;-62
2022/12/30 09:21:24;;;;;;;;;;;;;;;6.75;71.40;101020.34;4184205;28;20868;-61
2022/12/30 09:23:26;;;;;;;;;;;;;;;6.79;71.54;101024.44;4170983;28;20434;-61
2022/12/30 09:25:28;;;;;;;;;;;;;;;6.83;71.62;101017.81;4167325;28;19999;-61
2022/12/30 09:27:30;;;;;;;;;;;;;;;6.90;70.91;101031.50;4167783;28;20023;-60
2022/12/30 09:29:31;;;;;;;;;;;;;;;6.93;70.99;101027.66;4172828;28;20596;-58
2022/12/30 09:31:33;;;;;;;;;;;;;;;6.97;71.07;101037.13;4171260;28;20474;-56
2022/12/30 09:33:35;;;;;;;;;;;;;;;7.03;70.88;101033.84;4171028;28;20543;-60
2022/12/30 09:35:37;;;;;;;;;;;;;;;7.07;71.17;101023.66;4174722;28;20011;-63
2022/12/30 09:37:41;;;;;;;;;;;;;;;7.12;71.82;101014.16;4173531;28;20107;-67
2022/12/30 09:39:43;;;;;;;;;;;;;;;7.19;71.24;101017.97;4185857;28;20031;-62
2022/12/30 09:44:08;;;;;;;;;;;;;;;7.37;71.21;101017.16;4170661;28;20773;-60
2022/12/30 09:46:16;;;;;;;;;;;;;;;7.42;70.83;101008.66;4170335;28;20032;-63
2022/12/30 09:48:19;;;;;;;;;;;;;;;7.50;70.53;101011.44;4172539;28;19921;-59
2022/12/30 09:50:22;;;;;;;;;;;;;;;7.53;70.17;101011.97;4187069;28;20026;-62
2022/12/30 09:52:25;;;;;;;;;;;;;;;7.54;69.33;101013.69;4171614;28;20023;-60
2022/12/30 09:54:28;;;;;;;;;;;;;;;7.60;69.34;101014.06;4171414;28;20019;-60
2022/12/30 09:56:31;;;;;;;;;;;;;;;7.60;70.09;101008.69;4171781;28;20051;-60
2022/12/30 09:58:34;;;;;;;;;;;;;;;7.65;69.52;101023.38;4170782;28;20011;-60
2022/12/30 10:00:37;;;;;;;;;;;;;;;7.70;69.33;101026.44;4168851;28;20015;-60
2022/12/30 10:02:44;;;;;;;;;;;;;;;7.75;68.95;101026.84;4171824;28;20023;-61
2022/12/30 10:04:46;;;;;;;;;;;;;;;7.79;69.09;101016.63;4172257;28;20021;-63
2022/12/30 10:06:49;;;;;;;;;;;;;;;7.82;68.53;101019.03;4171578;28;20007;-63
2022/12/30 10:09:01;;;;;;;;;;;;;;;7.85;68.71;101015.16;4172468;28;20371;-65
2022/12/30 10:11:06;;;;;;;;;;;;;;;7.89;68.46;101017.41;4171011;28;20015;-62
2022/12/30 10:13:09;;;;;;;;;;;;;;;7.93;68.39;101002.66;4170919;28;20015;-62
2022/12/30 10:15:22;;;;;;;;;;;;;;;7.96;68.72;100998.81;4170021;28;20026;-62
2022/12/30 10:17:28;;;;;;;;;;;;;;;8.00;69.09;101002.06;4170927;28;20004;-61
2022/12/30 10:19:32;;;;;;;;;;;;;;;8.03;69.27;100999.88;4169581;28;19999;-60
2022/12/30 10:21:38;;;;;;;;;;;;;;;8.05;68.73;100989.81;4171183;28;20019;-60
2022/12/30 10:23:45;;;;;;;;;;;;;;;8.06;68.99;100980.75;4171868;28;20384;-62
2022/12/30 10:25:50;;;;;;;;;;;;;;;8.10;68.88;100995.59;4168804;28;19979;-60
2022/12/30 10:27:55;;;;;;;;;;;;;;;8.12;68.72;100992.75;4170816;28;20008;-59
2022/12/30 10:29:57;;;;;;;;;;;;;;;8.15;69.15;100987.06;4186110;28;19955;-58
2022/12/30 10:32:00;;;;;;;;;;;;;;;8.20;68.66;100989.28;4172073;28;20028;-62
2022/12/30 10:34:03;;;;;;;;;;;;;;;8.24;67.91;100998.72;4171585;28;20004;-61
2022/12/30 10:36:10;;;;;;;;;;;;;;;8.25;68.47;100987.78;4186102;28;19963;-59
2022/12/30 10:38:14;;;;;;;;;;;;;;;8.29;68.36;100977.56;4172601;28;20003;-60
2022/12/30 10:40:16;;;;;;;;;;;;;;;8.30;68.37;100977.41;4169719;28;20023;-60
2022/12/30 10:42:20;;;;;;;;;;;;;;;8.37;67.77;100992.94;4170408;28;20510;-61
2022/12/30 10:44:25;;;;;;;;;;;;;;;8.40;67.54;100984.53;4169103;28;20530;-66
2022/12/30 10:46:34;;;;;;;;;;;;;;;8.40;67.85;100965.69;4170690;28;20011;-61
2022/12/30 10:48:50;;;;;;;;;;;;;;;8.45;67.14;100971.50;4172091;28;20462;-61
2022/12/30 10:50:52;;;;;;;;;;;;;;;8.49;66.79;100967.47;4170674;28;20419;-62
2022/12/30 10:52:54;;;;;;;;;;;;;;;8.50;66.79;100960.28;4170697;28;20027;-63
2022/12/30 10:54:56;;;;;;;;;;;;;;;8.49;67.70;100970.16;4169892;28;20027;-64
2022/12/30 10:56:58;;;;;;;;;;;;;;;8.49;67.04;100959.41;4171386;28;20011;-64
2022/12/30 10:59:00;;;;;;;;;;;;;;;8.50;67.83;100958.41;4170848;28;20019;-61
2022/12/30 11:01:04;;;;;;;;;;;;;;;8.52;67.41;100947.50;4154474;28;20025;-61
2022/12/30 11:03:15;;;;;;;;;;;;;;;8.52;67.40;100948.31;4171887;28;19959;-59
2022/12/30 11:05:26;;;;;;;;;;;;;;;8.52;67.33;100944.78;4169863;28;20012;-57
2022/12/30 11:07:31;;;;;;;;;;;;;;;8.54;67.22;100940.97;4169815;28;20040;-57
2022/12/30 11:09:36;;;;;;;;;;;;;;;8.56;67.12;100952.41;4169315;28;19925;-59
2022/12/30 11:16:18;;;;;;;;;;;;;;;8.64;66.56;100948.91;4184926;28;20007;-56
2022/12/30 11:18:20;;;;;;;;;;;;;;;8.65;66.41;100939.81;4169912;28;20467;-61
2022/12/30 11:20:31;;;;;;;;;;;;;;;8.66;66.68;100945.03;4167654;28;20391;-61
2022/12/30 11:22:33;;;;;;;;;;;;;;;8.69;66.71;100935.81;4170441;28;20030;-58
2022/12/30 11:24:35;;;;;;;;;;;;;;;8.69;66.78;100933.13;4169014;28;20031;-58
2022/12/30 11:26:37;;;;;;;;;;;;;;;8.73;66.77;100939.00;4185956;28;20023;-55
2022/12/30 11:28:44;;;;;;;;;;;;;;;8.74;66.95;100932.63;4155008;28;20019;-59
2022/12/30 11:30:54;;;;;;;;;;;;;;;8.77;66.41;100946.63;4168102;28;20559;-59
2022/12/30 11:32:58;;;;;;;;;;;;;;;8.75;66.21;100928.94;4166244;28;20630;-60
2022/12/30 11:35:03;;;;;;;;;;;;;;;8.79;66.01;100922.22;4170275;28;20880;-61
2022/12/30 11:37:20;;;;;;;;;;;;;;;8.80;65.82;100916.66;4165328;28;19925;-57
2022/12/30 11:39:26;;;;;;;;;;;;;;;8.78;66.76;100912.47;4160475;28;20015;-60